sensor_id;sensor_type;location;lat;lon;timestamp;pressure;altitude;pressure_sealevel;temperature;humidity
56182;BME280;51963;46.052;14.544;2023-04-28T00:01:29;98541.56;;;7.84;100.00
56182;BME280;51963;46.052;14.544;2023-04-28T00:03:55;98542.38;;;7.84;100.00
56182;BME280;51963;46.052;14.544;2023-04-28T00:06:22;98545.16;;;7.91;100.00
56182;BME280;51963;46.052;14.544;2023-04-28T00:08:47;98557.69;;;7.89;100.00
56182;BME280;51963;46.052;14.544;2023-04-28T00:11:13;98550.25;;;7.92;100.00
56182;BME280;51963;46.052;14.544;2023-04-28T00:13:39;98547.28;;;7.87;100.00
56182;BME280;51963;46.052;14.544;2023-04-28T00:16:05;98547.47;;;7.94;100.00
56182;BME280;51963;46.052;14.544;2023-04-28T00:18:31;98540.91;;;7.90;100.00
56182;BME280;51963;46.052;14.544;2023-04-28T00:20:58;98540.25;;;7.80;100.00
56182;BME280;51963;46.052;14.544;2023-04-28T00:23:23;98544.19;;;7.84;100.00
56182;BME280;51963;46.052;14.544;2023-04-28T00:25:50;98513.44;;;7.59;100.00
56182;BME280;51963;46.052;14.544;2023-04-28T00:28:16;98536.78;;;7.62;100.00
56182;BME280;51963;46.052;14.544;2023-04-28T00:30:42;98535.13;;;7.53;100.00
56182;BME280;51963;46.052;14.544;2023-04-28T00:33:08;98540.72;;;7.67;100.00
56182;BME280;51963;46.052;14.544;2023-04-28T00:35:33;98551.25;;;7.67;100.00
56182;BME280;51963;46.052;14.544;2023-04-28T00:37:59;98526.75;;;7.58;100.00
56182;BME280;51963;46.052;14.544;2023-04-28T00:40:32;98543.53;;;7.57;100.00
56182;BME280;51963;46.052;14.544;2023-04-28T00:42:58;98539.41;;;7.46;100.00
56182;BME280;51963;46.052;14.544;2023-04-28T00:45:24;98545.81;;;7.43;100.00
56182;BME280;51963;46.052;14.544;2023-04-28T00:47:53;98538.28;;;7.48;100.00
56182;BME280;51963;46.052;14.544;2023-04-28T00:50:20;98537.94;;;7.52;100.00
56182;BME280;51963;46.052;14.544;2023-04-28T00:52:46;98532.69;;;7.43;100.00
56182;BME280;51963;46.052;14.544;2023-04-28T00:55:14;98529.88;;;7.45;100.00
56182;BME280;51963;46.052;14.544;2023-04-28T00:57:40;98535.63;;;7.40;100.00
56182;BME280;51963;46.052;14.544;2023-04-28T01:00:07;98538.94;;;7.42;100.00
56182;BME280;51963;46.052;14.544;2023-04-28T01:02:34;98534.63;;;7.33;100.00
56182;BME280;51963;46.052;14.544;2023-04-28T01:05:01;98526.75;;;7.25;100.00
56182;BME280;51963;46.052;14.544;2023-04-28T01:07:27;98530.03;;;7.27;100.00
56182;BME280;51963;46.052;14.544;2023-04-28T01:09:54;98536.41;;;7.24;100.00
56182;BME280;51963;46.052;14.544;2023-04-28T01:12:24;98539.72;;;7.26;100.00
56182;BME280;51963;46.052;14.544;2023-04-28T01:14:53;98538.56;;;7.29;100.00
56182;BME280;51963;46.052;14.544;2023-04-28T01:17:19;98531.66;;;7.11;100.00
56182;BME280;51963;46.052;14.544;2023-04-28T01:19:45;98537.03;;;7.01;100.00
56182;BME280;51963;46.052;14.544;2023-04-28T01:22:11;98542.13;;;6.95;100.00
56182;BME280;51963;46.052;14.544;2023-04-28T01:24:40;98539.19;;;7.06;100.00
56182;BME280;51963;46.052;14.544;2023-04-28T01:27:07;98533.75;;;6.99;100.00
56182;BME280;51963;46.052;14.544;2023-04-28T01:29:32;98528.63;;;6.89;100.00
56182;BME280;51963;46.052;14.544;2023-04-28T01:31:58;98539.50;;;7.03;100.00
56182;BME280;51963;46.052;14.544;2023-04-28T01:34:24;98545.25;;;6.98;100.00
56182;BME280;51963;46.052;14.544;2023-04-28T01:36:49;98548.00;;;6.88;100.00
56182;BME280;51963;46.052;14.544;2023-04-28T01:39:15;98522.16;;;6.75;100.00
56182;BME280;51963;46.052;14.544;2023-04-28T01:41:41;98544.03;;;6.76;100.00
56182;BME280;51963;46.052;14.544;2023-04-28T01:44:07;98537.66;;;6.87;100.00
56182;BME280;51963;46.052;14.544;2023-04-28T01:46:33;98541.41;;;6.76;100.00
56182;BME280;51963;46.052;14.544;2023-04-28T01:48:59;98543.38;;;6.74;100.00
56182;BME280;51963;46.052;14.544;2023-04-28T01:51:25;98549.41;;;6.66;100.00
56182;BME280;51963;46.052;14.544;2023-04-28T01:53:51;98548.69;;;6.56;100.00
56182;BME280;51963;46.052;14.544;2023-04-28T01:56:17;98546.56;;;6.51;100.00
56182;BME280;51963;46.052;14.544;2023-04-28T01:58:43;98530.75;;;6.43;100.00
56182;BME280;51963;46.052;14.544;2023-04-28T02:01:10;98545.91;;;6.49;100.00
56182;BME280;51963;46.052;14.544;2023-04-28T02:03:36;98550.47;;;6.47;100.00
56182;BME280;51963;46.052;14.544;2023-04-28T02:06:02;98537.94;;;6.33;100.00
56182;BME280;51963;46.052;14.544;2023-04-28T02:08:29;98549.06;;;6.26;100.00
56182;BME280;51963;46.052;14.544;2023-04-28T02:10:55;98547.19;;;6.45;100.00
56182;BME280;51963;46.052;14.544;2023-04-28T02:13:22;98532.81;;;6.31;100.00
56182;BME280;51963;46.052;14.544;2023-04-28T02:15:48;98551.41;;;6.38;100.00
56182;BME280;51963;46.052;14.544;2023-04-28T02:18:16;98550.19;;;6.24;100.00
56182;BME280;51963;46.052;14.544;2023-04-28T02:20:42;98534.44;;;6.24;100.00
56182;BME280;51963;46.052;14.544;2023-04-28T02:23:08;98560.28;;;6.37;100.00
56182;BME280;51963;46.052;14.544;2023-04-28T02:25:34;98558.59;;;6.27;100.00
56182;BME280;51963;46.052;14.544;2023-04-28T02:28:00;98554.13;;;6.28;100.00
56182;BME280;51963;46.052;14.544;2023-04-28T02:30:26;98558.94;;;6.33;100.00
56182;BME280;51963;46.052;14.544;2023-04-28T02:32:54;98562.53;;;6.31;100.00
56182;BME280;51963;46.052;14.544;2023-04-28T02:35:20;98559.56;;;6.26;100.00
56182;BME280;51963;46.052;14.544;2023-04-28T02:37:46;98532.47;;;5.99;100.00
56182;BME280;51963;46.052;14.544;2023-04-28T02:40:12;98554.16;;;6.01;100.00
56182;BME280;51963;46.052;14.544;2023-04-28T02:42:38;98551.13;;;5.96;100.00
56182;BME280;51963;46.052;14.544;2023-04-28T02:45:04;98552.41;;;5.92;100.00
56182;BME280;51963;46.052;14.544;2023-04-28T02:47:30;98553.41;;;5.91;100.00
56182;BME280;51963;46.052;14.544;2023-04-28T02:49:57;98544.31;;;6.04;100.00
56182;BME280;51963;46.052;14.544;2023-04-28T02:52:22;98544.81;;;6.07;100.00
56182;BME280;51963;46.052;14.544;2023-04-28T02:54:48;98551.22;;;6.05;100.00
56182;BME280;51963;46.052;14.544;2023-04-28T02:57:18;98549.88;;;6.00;100.00
56182;BME280;51963;46.052;14.544;2023-04-28T02:59:47;98552.34;;;6.02;100.00
56182;BME280;51963;46.052;14.544;2023-04-28T03:02:12;98552.56;;;6.09;100.00
56182;BME280;51963;46.052;14.544;2023-04-28T03:04:38;98549.94;;;6.09;100.00
56182;BME280;51963;46.052;14.544;2023-04-28T03:07:04;98557.50;;;6.12;100.00
56182;BME280;51963;46.052;14.544;2023-04-28T03:09:30;98559.16;;;6.13;100.00
56182;BME280;51963;46.052;14.544;2023-04-28T03:11:56;98551.91;;;6.07;100.00
56182;BME280;51963;46.052;14.544;2023-04-28T03:14:22;98561.06;;;6.03;100.00
56182;BME280;51963;46.052;14.544;2023-04-28T03:16:47;98553.53;;;5.90;100.00
56182;BME280;51963;46.052;14.544;2023-04-28T03:19:13;98558.28;;;5.86;100.00
56182;BME280;51963;46.052;14.544;2023-04-28T03:21:39;98551.47;;;5.75;100.00
56182;BME280;51963;46.052;14.544;2023-04-28T03:24:05;98568.78;;;5.86;100.00
56182;BME280;51963;46.052;14.544;2023-04-28T03:26:31;98564.56;;;5.93;100.00
56182;BME280;51963;46.052;14.544;2023-04-28T03:28:57;98541.69;;;5.85;100.00
56182;BME280;51963;46.052;14.544;2023-04-28T03:31:23;98564.88;;;5.90;100.00
56182;BME280;51963;46.052;14.544;2023-04-28T03:33:49;98548.41;;;5.80;100.00
56182;BME280;51963;46.052;14.544;2023-04-28T03:36:16;98550.66;;;5.75;100.00
56182;BME280;51963;46.052;14.544;2023-04-28T03:38:42;98555.97;;;5.65;100.00
56182;BME280;51963;46.052;14.544;2023-04-28T03:41:08;98550.88;;;5.63;100.00
56182;BME280;51963;46.052;14.544;2023-04-28T03:43:54;98551.38;;;5.85;100.00
56182;BME280;51963;46.052;14.544;2023-04-28T03:46:33;98553.94;;;5.77;100.00
56182;BME280;51963;46.052;14.544;2023-04-28T03:49:01;98557.19;;;5.70;100.00
56182;BME280;51963;46.052;14.544;2023-04-28T03:51:28;98553.50;;;5.63;100.00
56182;BME280;51963;46.052;14.544;2023-04-28T03:53:54;98543.31;;;5.60;100.00
56182;BME280;51963;46.052;14.544;2023-04-28T03:56:20;98531.72;;;5.45;100.00
56182;BME280;51963;46.052;14.544;2023-04-28T03:58:46;98560.34;;;5.56;100.00
56182;BME280;51963;46.052;14.544;2023-04-28T04:01:12;98559.66;;;5.54;100.00
56182;BME280;51963;46.052;14.544;2023-04-28T04:03:38;98559.28;;;5.49;100.00
56182;BME280;51963;46.052;14.544;2023-04-28T04:06:04;98554.13;;;5.57;100.00
56182;BME280;51963;46.052;14.544;2023-04-28T04:08:30;98551.69;;;5.82;100.00
56182;BME280;51963;46.052;14.544;2023-04-28T04:10:58;98557.31;;;5.87;100.00
56182;BME280;51963;46.052;14.544;2023-04-28T04:13:24;98561.28;;;5.91;100.00
56182;BME280;51963;46.052;14.544;2023-04-28T04:15:50;98559.50;;;6.00;100.00
56182;BME280;51963;46.052;14.544;2023-04-28T04:18:18;98564.41;;;6.13;100.00
56182;BME280;51963;46.052;14.544;2023-04-28T04:21:07;98561.66;;;6.23;100.00
56182;BME280;51963;46.052;14.544;2023-04-28T04:23:33;98548.69;;;6.21;100.00
56182;BME280;51963;46.052;14.544;2023-04-28T04:25:59;98552.09;;;6.40;100.00
56182;BME280;51963;46.052;14.544;2023-04-28T04:28:25;98564.59;;;6.46;100.00
56182;BME280;51963;46.052;14.544;2023-04-28T04:30:51;98543.34;;;6.66;100.00
56182;BME280;51963;46.052;14.544;2023-04-28T04:33:17;98556.22;;;6.85;100.00
56182;BME280;51963;46.052;14.544;2023-04-28T04:35:44;98555.88;;;6.80;100.00
56182;BME280;51963;46.052;14.544;2023-04-28T04:38:10;98560.81;;;6.83;100.00
56182;BME280;51963;46.052;14.544;2023-04-28T04:40:36;98556.88;;;6.87;100.00
56182;BME280;51963;46.052;14.544;2023-04-28T04:43:01;98552.94;;;6.92;100.00
56182;BME280;51963;46.052;14.544;2023-04-28T04:45:38;98540.81;;;6.99;100.00
56182;BME280;51963;46.052;14.544;2023-04-28T04:48:06;98550.38;;;7.08;100.00
56182;BME280;51963;46.052;14.544;2023-04-28T04:50:32;98552.03;;;7.17;100.00
56182;BME280;51963;46.052;14.544;2023-04-28T04:52:58;98553.38;;;7.30;100.00
56182;BME280;51963;46.052;14.544;2023-04-28T04:55:24;98560.28;;;7.39;100.00
56182;BME280;51963;46.052;14.544;2023-04-28T04:57:51;98563.41;;;7.43;100.00
56182;BME280;51963;46.052;14.544;2023-04-28T05:00:35;98571.81;;;7.46;100.00
56182;BME280;51963;46.052;14.544;2023-04-28T05:03:03;98567.22;;;7.57;100.00
56182;BME280;51963;46.052;14.544;2023-04-28T05:05:31;98577.09;;;7.63;100.00
56182;BME280;51963;46.052;14.544;2023-04-28T05:08:28;98586.63;;;7.89;100.00
56182;BME280;51963;46.052;14.544;2023-04-28T05:10:56;98563.28;;;7.86;100.00
56182;BME280;51963;46.052;14.544;2023-04-28T05:13:22;98598.47;;;8.10;100.00
56182;BME280;51963;46.052;14.544;2023-04-28T05:15:55;98592.84;;;8.29;100.00
56182;BME280;51963;46.052;14.544;2023-04-28T05:18:56;98586.25;;;8.42;100.00
56182;BME280;51963;46.052;14.544;2023-04-28T05:21:22;98584.25;;;8.44;100.00
56182;BME280;51963;46.052;14.544;2023-04-28T05:23:48;98581.13;;;8.57;100.00
56182;BME280;51963;46.052;14.544;2023-04-28T05:26:14;98577.00;;;8.62;100.00
56182;BME280;51963;46.052;14.544;2023-04-28T05:28:41;98572.06;;;8.59;100.00
56182;BME280;51963;46.052;14.544;2023-04-28T05:31:07;98566.09;;;8.65;100.00
56182;BME280;51963;46.052;14.544;2023-04-28T05:33:33;98573.63;;;8.77;100.00
56182;BME280;51963;46.052;14.544;2023-04-28T05:35:59;98574.22;;;8.95;100.00
56182;BME280;51963;46.052;14.544;2023-04-28T05:38:26;98565.69;;;8.85;100.00
56182;BME280;51963;46.052;14.544;2023-04-28T05:40:53;98572.16;;;9.14;100.00
56182;BME280;51963;46.052;14.544;2023-04-28T05:43:19;98566.19;;;9.20;100.00
56182;BME280;51963;46.052;14.544;2023-04-28T05:45:46;98562.50;;;9.30;100.00
56182;BME280;51963;46.052;14.544;2023-04-28T05:48:12;98569.66;;;9.44;100.00
56182;BME280;51963;46.052;14.544;2023-04-28T05:50:39;98564.63;;;9.03;100.00
56182;BME280;51963;46.052;14.544;2023-04-28T05:53:05;98569.91;;;9.03;100.00
56182;BME280;51963;46.052;14.544;2023-04-28T05:55:32;98563.38;;;9.45;100.00
56182;BME280;51963;46.052;14.544;2023-04-28T05:57:58;98562.09;;;9.64;100.00
56182;BME280;51963;46.052;14.544;2023-04-28T06:00:24;98561.69;;;9.52;100.00
56182;BME280;51963;46.052;14.544;2023-04-28T06:02:53;98560.03;;;9.51;100.00
56182;BME280;51963;46.052;14.544;2023-04-28T06:05:19;98566.38;;;9.65;100.00
56182;BME280;51963;46.052;14.544;2023-04-28T06:07:48;98580.56;;;9.88;100.00
56182;BME280;51963;46.052;14.544;2023-04-28T06:10:13;98584.97;;;10.10;100.00
56182;BME280;51963;46.052;14.544;2023-04-28T06:12:40;98587.34;;;10.05;100.00
56182;BME280;51963;46.052;14.544;2023-04-28T06:15:07;98583.25;;;10.18;100.00
56182;BME280;51963;46.052;14.544;2023-04-28T06:17:32;98588.38;;;10.19;100.00
56182;BME280;51963;46.052;14.544;2023-04-28T06:19:58;98602.31;;;10.28;100.00
56182;BME280;51963;46.052;14.544;2023-04-28T06:22:25;98593.38;;;10.52;100.00
56182;BME280;51963;46.052;14.544;2023-04-28T06:24:51;98602.47;;;10.50;100.00
56182;BME280;51963;46.052;14.544;2023-04-28T06:27:21;98600.28;;;10.53;100.00
56182;BME280;51963;46.052;14.544;2023-04-28T06:29:48;98573.25;;;10.66;100.00
56182;BME280;51963;46.052;14.544;2023-04-28T06:32:13;98582.34;;;10.79;98.87
56182;BME280;51963;46.052;14.544;2023-04-28T06:34:41;98572.94;;;10.91;98.77
56182;BME280;51963;46.052;14.544;2023-04-28T06:37:06;98577.75;;;11.03;98.11
56182;BME280;51963;46.052;14.544;2023-04-28T06:39:33;98580.28;;;11.11;97.23
56182;BME280;51963;46.052;14.544;2023-04-28T06:41:59;98573.78;;;11.13;97.23
56182;BME280;51963;46.052;14.544;2023-04-28T06:44:28;98569.63;;;11.41;96.13
56182;BME280;51963;46.052;14.544;2023-04-28T06:46:54;98566.47;;;11.52;95.65
56182;BME280;51963;46.052;14.544;2023-04-28T06:49:20;98565.59;;;11.45;94.86
56182;BME280;51963;46.052;14.544;2023-04-28T06:51:46;98554.88;;;11.32;94.47
56182;BME280;51963;46.052;14.544;2023-04-28T06:54:12;98560.84;;;11.62;91.85
56182;BME280;51963;46.052;14.544;2023-04-28T06:56:42;98558.03;;;11.64;90.66
56182;BME280;51963;46.052;14.544;2023-04-28T06:59:08;98555.25;;;11.72;90.29
56182;BME280;51963;46.052;14.544;2023-04-28T07:01:35;98555.03;;;11.73;90.50
56182;BME280;51963;46.052;14.544;2023-04-28T07:04:01;98553.56;;;12.14;89.16
56182;BME280;51963;46.052;14.544;2023-04-28T07:06:27;98543.22;;;12.55;88.73
56182;BME280;51963;46.052;14.544;2023-04-28T07:08:54;98550.78;;;12.29;87.68
56182;BME280;51963;46.052;14.544;2023-04-28T07:11:20;98526.47;;;12.54;88.32
56182;BME280;51963;46.052;14.544;2023-04-28T07:13:47;98540.31;;;12.98;85.58
56182;BME280;51963;46.052;14.544;2023-04-28T07:16:17;98556.94;;;13.27;84.80
56182;BME280;51963;46.052;14.544;2023-04-28T07:18:43;98546.22;;;13.56;83.19
56182;BME280;51963;46.052;14.544;2023-04-28T07:21:09;98534.47;;;13.23;84.13
56182;BME280;51963;46.052;14.544;2023-04-28T07:23:35;98535.78;;;13.47;83.54
56182;BME280;51963;46.052;14.544;2023-04-28T07:26:03;98541.72;;;13.56;80.41
56182;BME280;51963;46.052;14.544;2023-04-28T07:28:29;98533.75;;;13.56;80.49
56182;BME280;51963;46.052;14.544;2023-04-28T07:30:55;98545.19;;;13.63;80.36
56182;BME280;51963;46.052;14.544;2023-04-28T07:33:21;98539.88;;;13.57;81.69
56182;BME280;51963;46.052;14.544;2023-04-28T07:35:47;98534.97;;;14.01;79.72
56182;BME280;51963;46.052;14.544;2023-04-28T07:38:14;98536.59;;;13.48;80.28
56182;BME280;51963;46.052;14.544;2023-04-28T07:40:41;98512.50;;;13.63;79.01
56182;BME280;51963;46.052;14.544;2023-04-28T07:43:08;98535.78;;;13.94;80.10
56182;BME280;51963;46.052;14.544;2023-04-28T07:45:37;98527.41;;;13.71;80.74
56182;BME280;51963;46.052;14.544;2023-04-28T07:48:03;98512.47;;;13.36;81.18
56182;BME280;51963;46.052;14.544;2023-04-28T07:50:28;98517.38;;;14.00;78.79
56182;BME280;51963;46.052;14.544;2023-04-28T07:52:54;98514.66;;;14.40;76.50
56182;BME280;51963;46.052;14.544;2023-04-28T07:55:20;98514.69;;;14.27;78.37
56182;BME280;51963;46.052;14.544;2023-04-28T07:57:45;98517.22;;;14.67;77.81
56182;BME280;51963;46.052;14.544;2023-04-28T08:00:11;98511.72;;;15.14;76.89
56182;BME280;51963;46.052;14.544;2023-04-28T08:02:38;98517.75;;;15.28;76.13
56182;BME280;51963;46.052;14.544;2023-04-28T08:05:04;98510.88;;;15.46;74.91
56182;BME280;51963;46.052;14.544;2023-04-28T08:07:31;98518.94;;;15.39;74.95
56182;BME280;51963;46.052;14.544;2023-04-28T08:09:58;98510.19;;;15.57;70.69
56182;BME280;51963;46.052;14.544;2023-04-28T08:12:23;98508.47;;;15.37;70.82
56182;BME280;51963;46.052;14.544;2023-04-28T08:14:49;98501.69;;;15.09;72.30
56182;BME280;51963;46.052;14.544;2023-04-28T08:17:16;98493.19;;;15.26;72.21
56182;BME280;51963;46.052;14.544;2023-04-28T08:19:42;98500.66;;;15.43;72.06
56182;BME280;51963;46.052;14.544;2023-04-28T08:22:11;98509.50;;;15.36;70.49
56182;BME280;51963;46.052;14.544;2023-04-28T08:24:37;98503.06;;;15.51;71.48
56182;BME280;51963;46.052;14.544;2023-04-28T08:27:03;98507.50;;;15.32;72.57
56182;BME280;51963;46.052;14.544;2023-04-28T08:29:29;98510.69;;;14.63;73.91
56182;BME280;51963;46.052;14.544;2023-04-28T08:31:56;98517.75;;;14.23;77.03
56182;BME280;51963;46.052;14.544;2023-04-28T08:34:22;98514.53;;;14.01;76.64
56182;BME280;51963;46.052;14.544;2023-04-28T08:36:48;98520.66;;;14.08;75.75
56182;BME280;51963;46.052;14.544;2023-04-28T08:39:14;98519.63;;;14.89;74.07
56182;BME280;51963;46.052;14.544;2023-04-28T08:41:40;98521.78;;;15.05;71.13
56182;BME280;51963;46.052;14.544;2023-04-28T08:44:09;98530.13;;;15.16;70.73
56182;BME280;51963;46.052;14.544;2023-04-28T08:46:39;98527.69;;;15.14;71.21
56182;BME280;51963;46.052;14.544;2023-04-28T08:49:06;98524.19;;;15.14;71.03
56182;BME280;51963;46.052;14.544;2023-04-28T08:51:43;98513.50;;;14.81;74.90
56182;BME280;51963;46.052;14.544;2023-04-28T08:54:10;98515.22;;;14.56;73.24
56182;BME280;51963;46.052;14.544;2023-04-28T08:56:39;98513.03;;;14.98;72.49
56182;BME280;51963;46.052;14.544;2023-04-28T08:59:10;98508.47;;;15.37;70.38
56182;BME280;51963;46.052;14.544;2023-04-28T09:01:36;98513.59;;;15.71;70.00
56182;BME280;51963;46.052;14.544;2023-04-28T09:04:03;98513.53;;;15.52;69.37
56182;BME280;51963;46.052;14.544;2023-04-28T09:06:34;98507.16;;;15.53;71.45
56182;BME280;51963;46.052;14.544;2023-04-28T09:09:21;98508.72;;;15.61;72.65
56182;BME280;51963;46.052;14.544;2023-04-28T09:12:00;98501.44;;;15.50;72.19
56182;BME280;51963;46.052;14.544;2023-04-28T09:14:33;98499.00;;;15.74;70.32
56182;BME280;51963;46.052;14.544;2023-04-28T09:17:00;98491.91;;;15.86;70.81
56182;BME280;51963;46.052;14.544;2023-04-28T09:19:34;98492.75;;;15.87;71.23
56182;BME280;51963;46.052;14.544;2023-04-28T09:22:01;98492.34;;;15.83;71.47
56182;BME280;51963;46.052;14.544;2023-04-28T09:26:57;98485.03;;;15.21;72.28
56182;BME280;51963;46.052;14.544;2023-04-28T09:29:23;98483.75;;;16.06;69.18
56182;BME280;51963;46.052;14.544;2023-04-28T09:31:49;98495.44;;;16.31;66.98
56182;BME280;51963;46.052;14.544;2023-04-28T09:34:14;98484.25;;;15.71;67.05
56182;BME280;51963;46.052;14.544;2023-04-28T09:36:40;98483.41;;;16.59;64.29
56182;BME280;51963;46.052;14.544;2023-04-28T09:39:06;98490.66;;;16.70;64.43
56182;BME280;51963;46.052;14.544;2023-04-28T09:41:36;98480.53;;;16.91;63.94
56182;BME280;51963;46.052;14.544;2023-04-28T09:44:16;98472.22;;;17.41;59.63
56182;BME280;51963;46.052;14.544;2023-04-28T09:46:51;98458.88;;;17.53;58.58
56182;BME280;51963;46.052;14.544;2023-04-28T09:49:17;98470.97;;;17.68;57.39
56182;BME280;51963;46.052;14.544;2023-04-28T09:51:42;98457.91;;;17.24;60.10
56182;BME280;51963;46.052;14.544;2023-04-28T09:54:09;98458.53;;;16.46;60.71
56182;BME280;51963;46.052;14.544;2023-04-28T09:56:36;98459.03;;;16.36;62.82
56182;BME280;51963;46.052;14.544;2023-04-28T09:59:03;98466.22;;;16.85;61.73
56182;BME280;51963;46.052;14.544;2023-04-28T10:01:39;98457.38;;;17.57;60.93
56182;BME280;51963;46.052;14.544;2023-04-28T10:04:06;98457.13;;;18.18;59.43
56182;BME280;51963;46.052;14.544;2023-04-28T10:06:35;98457.03;;;17.78;57.68
56182;BME280;51963;46.052;14.544;2023-04-28T10:09:04;98459.66;;;18.37;57.13
56182;BME280;51963;46.052;14.544;2023-04-28T10:11:31;98444.63;;;18.48;54.41
56182;BME280;51963;46.052;14.544;2023-04-28T10:13:58;98450.34;;;18.81;54.44
56182;BME280;51963;46.052;14.544;2023-04-28T10:16:26;98454.81;;;19.04;52.65
56182;BME280;51963;46.052;14.544;2023-04-28T10:18:55;98452.47;;;18.96;56.37
56182;BME280;51963;46.052;14.544;2023-04-28T10:21:21;98446.78;;;19.38;53.63
56182;BME280;51963;46.052;14.544;2023-04-28T10:24:03;98441.84;;;19.64;54.12
56182;BME280;51963;46.052;14.544;2023-04-28T10:43:04;98399.38;;;21.54;44.94
56182;BME280;51963;46.052;14.544;2023-04-28T10:48:19;98395.16;;;21.31;44.20
56182;BME280;51963;46.052;14.544;2023-04-28T11:01:27;98371.56;;;23.64;32.93
56182;BME280;51963;46.052;14.544;2023-04-28T11:03:58;98382.94;;;24.37;32.87
56182;BME280;51963;46.052;14.544;2023-04-28T11:06:35;98371.72;;;24.14;29.46
56182;BME280;51963;46.052;14.544;2023-04-28T11:16:52;98387.84;;;19.95;33.46
56182;BME280;51963;46.052;14.544;2023-04-28T11:19:22;98370.25;;;19.47;33.81
56182;BME280;51963;46.052;14.544;2023-04-28T11:21:52;98370.19;;;19.42;34.52
56182;BME280;51963;46.052;14.544;2023-04-28T11:24:21;98350.91;;;18.77;35.75
56182;BME280;51963;46.052;14.544;2023-04-28T11:26:47;98362.59;;;18.71;36.02
56182;BME280;51963;46.052;14.544;2023-04-28T11:29:13;98356.41;;;18.53;37.24
56182;BME280;51963;46.052;14.544;2023-04-28T11:31:40;98374.84;;;18.38;37.17
56182;BME280;51963;46.052;14.544;2023-04-28T11:34:18;98382.72;;;17.92;38.13
56182;BME280;51963;46.052;14.544;2023-04-28T11:36:47;98372.16;;;18.09;38.03
56182;BME280;51963;46.052;14.544;2023-04-28T11:39:15;98379.00;;;17.93;38.42
56182;BME280;51963;46.052;14.544;2023-04-28T11:41:43;98379.75;;;17.64;39.37
56182;BME280;51963;46.052;14.544;2023-04-28T11:44:23;98371.84;;;17.69;40.54
56182;BME280;51963;46.052;14.544;2023-04-28T11:49:42;98352.53;;;17.55;42.97
56182;BME280;51963;46.052;14.544;2023-04-28T11:52:09;98354.06;;;17.51;44.17
56182;BME280;51963;46.052;14.544;2023-04-28T11:54:36;98356.03;;;17.44;45.06
56182;BME280;51963;46.052;14.544;2023-04-28T11:57:03;98351.63;;;17.38;45.73
56182;BME280;51963;46.052;14.544;2023-04-28T11:59:30;98361.31;;;16.96;49.48
56182;BME280;51963;46.052;14.544;2023-04-28T12:02:03;98363.78;;;16.98;45.93
56182;BME280;51963;46.052;14.544;2023-04-28T12:04:36;98364.31;;;16.88;46.30
56182;BME280;51963;46.052;14.544;2023-04-28T12:07:14;98376.63;;;16.89;47.39
56182;BME280;51963;46.052;14.544;2023-04-28T12:09:42;98376.06;;;16.56;47.34
56182;BME280;51963;46.052;14.544;2023-04-28T12:12:13;98372.75;;;16.42;47.60
56182;BME280;51963;46.052;14.544;2023-04-28T12:14:58;98378.63;;;16.33;49.65
56182;BME280;51963;46.052;14.544;2023-04-28T12:17:32;98373.19;;;16.09;51.90
56182;BME280;51963;46.052;14.544;2023-04-28T12:20:00;98384.81;;;15.96;57.17
56182;BME280;51963;46.052;14.544;2023-04-28T12:22:27;98386.28;;;15.92;56.16
56182;BME280;51963;46.052;14.544;2023-04-28T12:25:06;98391.56;;;15.73;56.00
56182;BME280;51963;46.052;14.544;2023-04-28T12:27:36;98390.28;;;15.57;56.03
56182;BME280;51963;46.052;14.544;2023-04-28T12:32:40;98387.69;;;15.50;57.57
56182;BME280;51963;46.052;14.544;2023-04-28T12:35:06;98377.31;;;15.42;56.12
56182;BME280;51963;46.052;14.544;2023-04-28T12:37:32;98367.19;;;15.51;57.36
56182;BME280;51963;46.052;14.544;2023-04-28T12:39:59;98376.03;;;15.70;57.44
56182;BME280;51963;46.052;14.544;2023-04-28T12:42:24;98357.06;;;15.78;56.77
56182;BME280;51963;46.052;14.544;2023-04-28T12:44:51;98354.63;;;15.77;60.37
56182;BME280;51963;46.052;14.544;2023-04-28T12:47:16;98366.09;;;15.59;58.91
56182;BME280;51963;46.052;14.544;2023-04-28T12:49:43;98351.41;;;15.93;56.79
56182;BME280;51963;46.052;14.544;2023-04-28T12:52:09;98341.34;;;15.95;58.17
56182;BME280;51963;46.052;14.544;2023-04-28T12:54:35;98342.38;;;16.13;55.06
56182;BME280;51963;46.052;14.544;2023-04-28T12:57:01;98338.94;;;16.24;54.14
56182;BME280;51963;46.052;14.544;2023-04-28T12:59:29;98338.56;;;16.51;54.40
56182;BME280;51963;46.052;14.544;2023-04-28T13:01:55;98330.84;;;16.74;56.17
56182;BME280;51963;46.052;14.544;2023-04-28T13:04:21;98319.63;;;16.83;54.25
56182;BME280;51963;46.052;14.544;2023-04-28T13:06:47;98321.72;;;16.81;52.27
56182;BME280;51963;46.052;14.544;2023-04-28T13:09:14;98310.44;;;16.79;52.68
56182;BME280;51963;46.052;14.544;2023-04-28T13:11:40;98317.41;;;16.80;54.47
56182;BME280;51963;46.052;14.544;2023-04-28T13:14:06;98309.28;;;16.75;55.27
56182;BME280;51963;46.052;14.544;2023-04-28T13:16:32;98291.13;;;16.53;52.24
56182;BME280;51963;46.052;14.544;2023-04-28T13:18:59;98314.44;;;17.00;51.17
56182;BME280;51963;46.052;14.544;2023-04-28T13:21:26;98301.06;;;16.89;51.40
56182;BME280;51963;46.052;14.544;2023-04-28T13:23:54;98297.84;;;17.10;52.08
56182;BME280;51963;46.052;14.544;2023-04-28T13:26:20;98306.28;;;16.95;54.08
56182;BME280;51963;46.052;14.544;2023-04-28T13:28:48;98291.53;;;16.93;52.48
56182;BME280;51963;46.052;14.544;2023-04-28T13:31:14;98305.16;;;17.15;49.48
56182;BME280;51963;46.052;14.544;2023-04-28T13:33:40;98294.94;;;17.24;48.54
56182;BME280;51963;46.052;14.544;2023-04-28T13:36:07;98295.28;;;17.15;48.29
56182;BME280;51963;46.052;14.544;2023-04-28T13:38:34;98290.88;;;17.33;50.82